createdAt,value
2018-09-22T00:00:12.413Z,16.40
2018-09-22T00:01:16.886Z,16.40
2018-09-22T00:02:21.083Z,16.40
2018-09-22T00:03:25.212Z,16.40
2018-09-22T00:04:29.375Z,16.30
2018-09-22T00:05:33.634Z,16.30
2018-09-22T00:06:37.710Z,16.30
2018-09-22T00:07:41.774Z,16.30
2018-09-22T00:08:45.851Z,16.30
2018-09-22T00:09:50.080Z,16.30
2018-09-22T00:10:54.192Z,16.30
2018-09-22T00:11:58.364Z,16.30
2018-09-22T00:13:02.521Z,16.30
2018-09-22T00:14:06.775Z,16.30
2018-09-22T00:15:10.920Z,16.30
2018-09-22T00:16:14.997Z,16.30
2018-09-22T00:17:19.109Z,16.30
2018-09-22T00:18:23.233Z,16.30
2018-09-22T00:19:27.340Z,16.30
2018-09-22T00:21:41.650Z,16.20
2018-09-22T00:22:45.767Z,16.20
2018-09-22T00:23:49.929Z,16.20
2018-09-22T00:24:54.058Z,16.20
2018-09-22T00:25:58.193Z,16.20
2018-09-22T00:27:02.242Z,16.20
2018-09-22T00:28:06.560Z,16.20
2018-09-22T00:29:11.203Z,16.20
2018-09-22T00:30:15.245Z,16.20
2018-09-22T00:31:19.713Z,16.20
2018-09-22T00:32:23.800Z,16.20
2018-09-22T00:33:28.017Z,16.20
2018-09-22T00:34:32.126Z,16.20
2018-09-22T00:35:36.204Z,16.20
2018-09-22T00:36:40.256Z,16.20
2018-09-22T00:37:44.639Z,16.20
2018-09-22T00:38:48.721Z,16.20
2018-09-22T00:39:52.733Z,16.20
2018-09-22T00:40:57.115Z,16.20
2018-09-22T00:42:01.289Z,16.20
2018-09-22T00:43:05.856Z,16.20
2018-09-22T00:44:10.278Z,16.20
2018-09-22T00:45:14.358Z,16.20
2018-09-22T00:46:18.440Z,16.20
2018-09-22T00:47:22.574Z,16.20
2018-09-22T00:48:26.685Z,16.10
2018-09-22T00:49:31.190Z,16.10
2018-09-22T00:50:35.267Z,16.20
2018-09-22T00:51:39.355Z,16.10
2018-09-22T00:52:43.460Z,16.10
2018-09-22T00:53:47.618Z,16.10
2018-09-22T00:54:51.731Z,16.10
2018-09-22T00:55:55.894Z,16.10
2018-09-22T00:57:00.058Z,16.10
2018-09-22T00:58:04.085Z,16.10
2018-09-22T00:59:08.253Z,16.10
2018-09-22T01:00:12.418Z,16.10
2018-09-22T01:01:16.470Z,16.10
2018-09-22T01:02:20.604Z,16.10
2018-09-22T01:03:24.720Z,16.10
2018-09-22T01:04:28.862Z,16.10
2018-09-22T01:05:33.131Z,16.10
2018-09-22T01:06:37.750Z,16.10
2018-09-22T01:07:42.357Z,16.10
2018-09-22T01:08:46.654Z,16.10
2018-09-22T01:09:50.737Z,16.10
2018-09-22T01:11:00.876Z,16.20
2018-09-22T01:12:05.009Z,16.10
2018-09-22T01:13:09.185Z,16.10
2018-09-22T01:14:13.394Z,15.80
2018-09-22T01:15:17.492Z,16.10
2018-09-22T01:16:21.744Z,16.20
2018-09-22T01:17:25.837Z,16.10
2018-09-22T01:18:30.066Z,16.10
2018-09-22T01:19:34.093Z,16.10
2018-09-22T01:20:38.177Z,16.10
2018-09-22T01:21:42.389Z,16.10
2018-09-22T01:22:46.494Z,16.10
2018-09-22T01:23:50.973Z,16.10
2018-09-22T01:24:55.183Z,16.10
2018-09-22T01:25:59.652Z,16.10
2018-09-22T01:27:10.272Z,16.10
2018-09-22T01:28:14.368Z,16.10
2018-09-22T01:29:18.480Z,16.10
2018-09-22T01:30:22.570Z,16.10
2018-09-22T01:31:26.663Z,16.10
2018-09-22T01:32:30.816Z,16.10
2018-09-22T01:33:34.914Z,16.10
2018-09-22T01:34:39.039Z,16.10
2018-09-22T01:35:43.046Z,16.10
2018-09-22T01:36:47.233Z,16.10
2018-09-22T01:37:51.355Z,16.10
2018-09-22T01:38:55.381Z,16.10
2018-09-22T01:39:59.714Z,16.10
2018-09-22T01:41:03.774Z,16.10
2018-09-22T01:42:07.897Z,16.10
2018-09-22T01:43:12.100Z,16.10
2018-09-22T01:44:16.250Z,16.10
2018-09-22T01:45:20.404Z,16.20
2018-09-22T01:46:24.510Z,16.20
2018-09-22T01:47:28.616Z,16.20
2018-09-22T01:48:32.879Z,16.20
2018-09-22T01:49:37.266Z,16.20
2018-09-22T01:50:41.475Z,16.20
2018-09-22T01:51:45.539Z,16.20
2018-09-22T01:52:49.628Z,16.20
2018-09-22T01:53:53.737Z,16.20
2018-09-22T01:54:57.821Z,16.20
2018-09-22T01:56:01.954Z,16.20
2018-09-22T01:57:06.019Z,16.30
2018-09-22T01:58:10.124Z,16.30
2018-09-22T01:59:14.290Z,16.30
2018-09-22T02:00:18.355Z,16.30
2018-09-22T02:01:22.477Z,16.30
2018-09-22T02:02:26.623Z,16.30
2018-09-22T02:03:30.749Z,16.30
2018-09-22T02:04:34.969Z,16.30
2018-09-22T02:05:39.055Z,16.30
2018-09-22T02:06:43.180Z,16.40
2018-09-22T02:07:47.232Z,16.40
2018-09-22T02:08:51.360Z,16.40
2018-09-22T02:09:55.612Z,16.40
2018-09-22T02:10:59.803Z,16.40
2018-09-22T02:12:03.928Z,16.40
2018-09-22T02:13:08.154Z,16.40
2018-09-22T02:14:12.533Z,16.40
2018-09-22T02:15:16.612Z,16.40
2018-09-22T02:16:20.729Z,16.40
2018-09-22T02:17:24.840Z,16.50
2018-09-22T02:18:29.017Z,16.50
2018-09-22T02:19:33.185Z,16.50
2018-09-22T02:20:37.235Z,16.50
2018-09-22T02:21:41.346Z,16.50
2018-09-22T02:22:45.534Z,16.50
2018-09-22T02:23:49.592Z,16.50
2018-09-22T02:24:53.756Z,16.50
2018-09-22T02:25:58.079Z,16.50
2018-09-22T02:27:02.706Z,16.50
2018-09-22T02:28:07.023Z,16.50
2018-09-22T02:29:11.200Z,16.50
2018-09-22T02:30:15.629Z,16.50
2018-09-22T02:31:19.819Z,16.50
2018-09-22T02:32:24.353Z,16.50
2018-09-22T02:33:28.414Z,16.50
2018-09-22T02:34:32.550Z,16.50
2018-09-22T02:35:36.709Z,16.50
2018-09-22T02:36:40.864Z,16.50
2018-09-22T02:37:44.972Z,16.50
2018-09-22T02:38:49.214Z,16.50
2018-09-22T02:39:53.365Z,16.50
2018-09-22T02:40:57.447Z,16.40
2018-09-22T02:42:01.639Z,16.40
2018-09-22T02:43:05.700Z,16.40
2018-09-22T02:44:09.810Z,16.40
2018-09-22T02:45:13.981Z,16.40
2018-09-22T02:46:18.177Z,16.40
2018-09-22T02:47:22.315Z,16.40
2018-09-22T02:48:26.477Z,16.40
2018-09-22T02:49:30.548Z,16.40
2018-09-22T02:50:34.674Z,16.40
2018-09-22T02:51:38.718Z,16.40
2018-09-22T02:52:42.793Z,16.40
2018-09-22T02:53:46.912Z,16.40
2018-09-22T02:54:50.972Z,16.30
2018-09-22T02:55:55.110Z,16.30
2018-09-22T02:56:59.485Z,16.30
2018-09-22T02:58:03.440Z,16.30
2018-09-22T02:59:07.711Z,16.30
2018-09-22T03:00:11.880Z,16.30
2018-09-22T03:01:15.935Z,16.30
2018-09-22T03:02:20.368Z,16.30
2018-09-22T03:03:24.440Z,16.30
2018-09-22T03:04:28.545Z,16.30
2018-09-22T03:05:32.582Z,16.30
2018-09-22T03:06:36.783Z,16.20
2018-09-22T03:07:40.808Z,16.20
2018-09-22T03:08:44.927Z,16.20
2018-09-22T03:09:49.067Z,16.20
2018-09-22T03:10:53.140Z,16.20
2018-09-22T03:11:57.174Z,16.20
2018-09-22T03:13:01.251Z,16.20
2018-09-22T03:14:05.299Z,16.20
2018-09-22T03:15:09.357Z,16.20
2018-09-22T03:16:13.486Z,16.20
2018-09-22T03:17:17.558Z,16.20
2018-09-22T03:18:21.664Z,16.20
2018-09-22T03:19:25.732Z,16.10
2018-09-22T03:20:29.820Z,16.10
2018-09-22T03:21:33.896Z,16.10
2018-09-22T03:22:38.056Z,16.10
2018-09-22T03:23:43.202Z,16.10
2018-09-22T03:24:47.390Z,16.10
2018-09-22T03:25:51.590Z,16.10
2018-09-22T03:26:55.729Z,16.10
2018-09-22T03:27:59.856Z,16.10
2018-09-22T03:29:03.972Z,16.10
2018-09-22T03:30:08.456Z,16.10
2018-09-22T03:31:12.647Z,16.10
2018-09-22T03:32:16.918Z,16.10
2018-09-22T03:33:21.066Z,16.10
2018-09-22T03:34:25.185Z,16.10
2018-09-22T03:35:29.298Z,16.10
2018-09-22T03:36:33.374Z,16.10
2018-09-22T03:37:37.492Z,16.10
2018-09-22T03:38:41.570Z,16.00
2018-09-22T03:39:46.063Z,16.00
2018-09-22T03:40:50.195Z,16.00
2018-09-22T03:41:54.348Z,16.00
2018-09-22T03:42:58.433Z,16.00
2018-09-22T03:44:02.626Z,16.00
2018-09-22T03:45:06.780Z,16.00
2018-09-22T03:46:10.880Z,16.00
2018-09-22T03:47:14.981Z,16.00
2018-09-22T03:48:19.137Z,16.00
2018-09-22T03:49:23.154Z,16.00
2018-09-22T03:50:27.295Z,16.00
2018-09-22T03:51:31.469Z,15.90
2018-09-22T03:52:35.535Z,16.00
2018-09-22T03:53:39.622Z,16.00
2018-09-22T03:54:44.538Z,15.90
2018-09-22T03:55:48.616Z,15.90
2018-09-22T03:56:52.769Z,15.90
2018-09-22T03:57:56.876Z,15.90
2018-09-22T03:59:01.076Z,15.90
2018-09-22T04:00:05.478Z,15.90
2018-09-22T04:01:10.361Z,15.90
2018-09-22T04:02:14.727Z,15.90
2018-09-22T04:03:18.886Z,15.80
2018-09-22T04:04:23.226Z,15.80
2018-09-22T04:05:27.666Z,15.90
2018-09-22T04:06:32.118Z,15.80
2018-09-22T04:07:36.491Z,15.80
2018-09-22T04:08:40.532Z,15.80
2018-09-22T04:09:45.010Z,15.80
2018-09-22T04:10:49.194Z,15.80
2018-09-22T04:11:53.203Z,15.70
2018-09-22T04:12:57.284Z,15.70
2018-09-22T04:14:01.388Z,15.70
2018-09-22T04:15:05.677Z,15.70
2018-09-22T04:16:10.032Z,15.70
2018-09-22T04:17:14.233Z,15.70
2018-09-22T04:18:18.640Z,15.60
2018-09-22T04:19:22.748Z,15.60
2018-09-22T04:20:27.155Z,15.60
2018-09-22T04:21:31.223Z,15.60
2018-09-22T04:22:35.350Z,15.60
2018-09-22T04:23:39.812Z,15.60
2018-09-22T04:24:44.331Z,15.60
2018-09-22T04:25:48.683Z,15.60
2018-09-22T04:26:52.752Z,15.50
2018-09-22T04:27:56.881Z,15.60
2018-09-22T04:29:01.094Z,15.60
2018-09-22T04:30:05.386Z,15.50
2018-09-22T04:31:09.500Z,15.60
2018-09-22T04:32:13.654Z,15.50
2018-09-22T04:33:17.823Z,15.50
2018-09-22T04:34:21.883Z,15.50
2018-09-22T04:35:25.986Z,15.50
2018-09-22T04:36:30.052Z,15.50
2018-09-22T04:37:34.475Z,15.50
2018-09-22T04:38:38.905Z,15.50
2018-09-22T04:39:42.988Z,15.50
2018-09-22T04:40:47.084Z,15.50
2018-09-22T04:41:51.204Z,15.50
2018-09-22T04:42:55.275Z,15.50
2018-09-22T04:43:59.334Z,15.50
2018-09-22T04:45:03.448Z,15.50
2018-09-22T04:46:07.572Z,15.50
2018-09-22T04:47:11.611Z,15.50
2018-09-22T04:48:16.061Z,15.50
2018-09-22T04:49:20.389Z,15.50
2018-09-22T04:50:24.830Z,15.50
2018-09-22T04:51:29.791Z,15.50
2018-09-22T04:52:33.868Z,15.50
2018-09-22T04:53:37.958Z,15.50
2018-09-22T04:54:42.134Z,15.50
2018-09-22T04:55:46.242Z,15.50
2018-09-22T04:56:50.290Z,15.50
2018-09-22T04:57:54.426Z,15.50
2018-09-22T04:58:58.465Z,15.50
2018-09-22T05:00:02.522Z,15.50
2018-09-22T05:01:06.745Z,15.50
2018-09-22T05:02:10.857Z,15.40
2018-09-22T05:03:15.066Z,15.40
2018-09-22T05:04:19.150Z,15.40
2018-09-22T05:05:23.250Z,15.40
2018-09-22T05:06:27.372Z,15.40
2018-09-22T05:07:31.533Z,15.40
2018-09-22T05:08:35.771Z,15.40
2018-09-22T05:09:39.917Z,15.30
2018-09-22T05:10:44.263Z,15.30
2018-09-22T05:11:48.660Z,15.30
2018-09-22T05:12:52.760Z,15.40
2018-09-22T05:13:56.916Z,15.30
2018-09-22T05:15:00.961Z,15.30
2018-09-22T05:16:05.058Z,15.30
2018-09-22T05:17:09.227Z,15.30
2018-09-22T05:18:13.328Z,15.30
2018-09-22T05:19:17.460Z,15.30
2018-09-22T05:20:21.616Z,15.30
2018-09-22T05:21:25.696Z,15.30
2018-09-22T05:22:29.794Z,15.30
2018-09-22T05:23:33.970Z,15.20
2018-09-22T05:24:38.071Z,15.20
2018-09-22T05:25:42.234Z,15.20
2018-09-22T05:26:46.356Z,15.20
2018-09-22T05:27:57.151Z,15.20
2018-09-22T05:29:01.223Z,15.20
2018-09-22T05:30:05.532Z,15.20
2018-09-22T05:31:09.647Z,15.20
2018-09-22T05:32:13.791Z,15.20
2018-09-22T05:33:17.856Z,15.20
2018-09-22T05:34:22.014Z,15.20
2018-09-22T05:35:26.137Z,15.20
2018-09-22T05:36:30.160Z,15.20
2018-09-22T05:37:34.577Z,15.20
2018-09-22T05:38:38.933Z,15.20
2018-09-22T05:39:43.158Z,15.20
2018-09-22T05:40:47.182Z,15.20
2018-09-22T05:41:51.769Z,15.10
2018-09-22T05:42:56.208Z,15.20
2018-09-22T05:44:00.710Z,15.20
2018-09-22T05:45:05.618Z,15.20
2018-09-22T05:46:09.854Z,15.20
2018-09-22T05:47:13.944Z,15.20
2018-09-22T05:48:18.088Z,15.20
2018-09-22T05:49:22.202Z,15.20
2018-09-22T05:50:26.379Z,15.20
2018-09-22T05:51:30.556Z,15.20
2018-09-22T05:52:34.660Z,15.20
2018-09-22T05:53:38.956Z,15.20
2018-09-22T05:54:43.079Z,15.20
2018-09-22T05:55:47.266Z,15.30
2018-09-22T05:56:51.766Z,15.30
2018-09-22T05:57:56.058Z,15.30
2018-09-22T05:59:00.127Z,15.30
2018-09-22T06:00:04.217Z,15.30
2018-09-22T06:01:08.379Z,15.30
2018-09-22T06:02:12.946Z,15.30
2018-09-22T06:03:17.108Z,15.40
2018-09-22T06:04:21.279Z,15.40
2018-09-22T06:05:25.322Z,15.40
2018-09-22T06:06:29.418Z,15.40
2018-09-22T06:07:33.606Z,15.40
2018-09-22T06:08:37.760Z,15.40
2018-09-22T06:09:42.037Z,15.40
2018-09-22T06:10:46.109Z,15.50
2018-09-22T06:11:50.162Z,15.50
2018-09-22T06:12:54.281Z,15.50
2018-09-22T06:13:58.376Z,15.50
2018-09-22T06:15:02.821Z,15.50
2018-09-22T06:16:07.615Z,15.50
2018-09-22T06:17:11.666Z,15.50
2018-09-22T06:18:15.866Z,15.50
2018-09-22T06:19:19.988Z,15.50
2018-09-22T06:20:24.173Z,15.50
2018-09-22T06:21:28.334Z,15.50
2018-09-22T06:22:32.391Z,15.50
2018-09-22T06:23:36.659Z,15.50
2018-09-22T06:24:41.033Z,15.50
2018-09-22T06:25:45.268Z,15.50
2018-09-22T06:26:49.878Z,15.50
2018-09-22T06:27:54.888Z,15.50
2018-09-22T06:28:59.001Z,15.50
2018-09-22T06:30:03.192Z,15.50
2018-09-22T06:31:07.303Z,15.50
2018-09-22T06:32:11.382Z,15.50
2018-09-22T06:33:15.487Z,15.60
2018-09-22T06:34:19.728Z,15.60
2018-09-22T06:35:24.110Z,15.60
2018-09-22T06:36:28.250Z,15.60
2018-09-22T06:37:32.453Z,15.60
2018-09-22T06:38:36.460Z,15.70
2018-09-22T06:39:40.550Z,15.70
2018-09-22T06:40:44.768Z,15.70
2018-09-22T06:41:48.908Z,15.70
2018-09-22T06:42:53.222Z,15.70
2018-09-22T06:43:57.309Z,15.70
2018-09-22T06:45:01.574Z,15.70
2018-09-22T06:46:05.744Z,15.80
2018-09-22T06:47:09.969Z,15.80
2018-09-22T06:48:14.666Z,15.80
2018-09-22T06:49:19.086Z,15.80
2018-09-22T06:50:23.168Z,15.80
2018-09-22T06:51:27.505Z,15.80
2018-09-22T06:52:31.628Z,15.80
2018-09-22T06:53:35.813Z,15.90
2018-09-22T06:54:39.982Z,15.90
2018-09-22T06:55:44.128Z,15.90
2018-09-22T06:56:48.310Z,16.00
2018-09-22T06:57:52.407Z,16.00
2018-09-22T06:58:56.634Z,16.00
2018-09-22T07:00:00.934Z,16.00
2018-09-22T07:01:05.298Z,16.10
2018-09-22T07:02:09.642Z,16.10
2018-09-22T07:03:13.769Z,16.10
2018-09-22T07:04:18.077Z,16.10
2018-09-22T07:05:22.468Z,16.20
2018-09-22T07:06:26.786Z,16.10
2018-09-22T07:07:30.977Z,16.20
2018-09-22T07:08:35.080Z,16.20
2018-09-22T07:09:39.294Z,16.20
2018-09-22T07:10:43.495Z,16.20
2018-09-22T07:11:47.581Z,16.20
2018-09-22T07:12:51.684Z,16.20
2018-09-22T07:13:55.738Z,16.20
2018-09-22T07:14:59.900Z,16.30
2018-09-22T07:16:04.100Z,16.20
2018-09-22T07:17:08.172Z,16.20
2018-09-22T07:18:12.435Z,16.30
2018-09-22T07:19:16.857Z,16.30
2018-09-22T07:20:21.100Z,16.30
2018-09-22T07:21:30.590Z,16.30
2018-09-22T07:22:40.360Z,16.40
2018-09-22T07:23:44.920Z,16.40
2018-09-22T07:24:48.982Z,16.40
2018-09-22T07:25:53.096Z,16.40
2018-09-22T07:26:57.190Z,16.40
2018-09-22T07:28:01.748Z,16.50
2018-09-22T07:29:05.827Z,16.50
2018-09-22T07:30:10.052Z,16.50
2018-09-22T07:31:14.208Z,16.50
2018-09-22T07:32:18.365Z,16.60
2018-09-22T07:33:22.584Z,16.60
2018-09-22T07:34:26.872Z,16.60
2018-09-22T07:35:30.976Z,16.60
2018-09-22T07:36:35.520Z,16.70
2018-09-22T07:37:39.845Z,16.70
2018-09-22T07:38:44.224Z,16.70
2018-09-22T07:39:48.401Z,16.70
2018-09-22T07:40:52.512Z,16.80
2018-09-22T07:41:56.644Z,16.80
2018-09-22T07:43:00.830Z,16.80
2018-09-22T07:44:05.059Z,16.90
2018-09-22T07:45:09.326Z,16.90
2018-09-22T07:46:14.082Z,17.00
2018-09-22T07:47:18.301Z,17.00
2018-09-22T07:48:22.693Z,17.00
2018-09-22T07:49:27.042Z,17.10
2018-09-22T07:50:31.170Z,17.10
2018-09-22T07:51:35.300Z,17.10
2018-09-22T07:52:39.440Z,17.20
2018-09-22T07:53:43.820Z,17.20
2018-09-22T07:54:48.009Z,17.20
2018-09-22T07:55:52.169Z,17.30
2018-09-22T07:56:56.276Z,17.30
2018-09-22T07:58:00.382Z,17.30
2018-09-22T07:59:04.615Z,17.40
2018-09-22T08:00:08.724Z,17.40
2018-09-22T08:01:12.957Z,17.40
2018-09-22T08:02:17.094Z,17.50
2018-09-22T08:03:21.270Z,17.50
2018-09-22T08:04:25.452Z,17.50
2018-09-22T08:05:29.603Z,17.50
2018-09-22T08:06:33.802Z,17.50
2018-09-22T08:07:38.038Z,17.60
2018-09-22T08:08:42.308Z,17.60
2018-09-22T08:09:47.144Z,17.60
2018-09-22T08:10:51.440Z,17.70
2018-09-22T08:11:55.886Z,17.80
2018-09-22T08:13:00.004Z,17.80
2018-09-22T08:14:04.159Z,17.80
2018-09-22T08:15:08.341Z,17.90
2018-09-22T08:16:12.507Z,18.00
2018-09-22T08:17:16.724Z,18.00
2018-09-22T08:18:20.839Z,18.10
2018-09-22T08:19:25.211Z,18.20
2018-09-22T08:20:29.421Z,18.20
2018-09-22T08:21:33.451Z,18.30
2018-09-22T08:22:37.556Z,18.40
2018-09-22T08:23:41.773Z,18.40
2018-09-22T08:24:45.823Z,18.50
2018-09-22T08:25:49.976Z,18.50
2018-09-22T08:26:54.138Z,18.60
2018-09-22T08:27:58.267Z,18.60
2018-09-22T08:29:02.360Z,18.70
2018-09-22T08:30:07.346Z,18.80
2018-09-22T08:31:11.609Z,18.80
2018-09-22T08:32:15.842Z,18.80
2018-09-22T08:33:20.404Z,18.90
2018-09-22T08:34:24.644Z,19.00
2018-09-22T08:35:28.698Z,19.00
2018-09-22T08:36:33.115Z,19.10
2018-09-22T08:37:37.022Z,19.10
2018-09-22T08:38:41.142Z,19.20
2018-09-22T08:39:45.892Z,19.20
2018-09-22T08:40:50.084Z,19.20
2018-09-22T08:41:54.405Z,19.30
2018-09-22T08:42:58.747Z,19.30
2018-09-22T08:44:03.050Z,19.30
2018-09-22T08:45:07.446Z,19.40
2018-09-22T08:46:11.658Z,19.40
2018-09-22T08:47:15.760Z,19.40
2018-09-22T08:48:21.530Z,19.40
2018-09-22T08:49:25.841Z,19.40
2018-09-22T08:50:29.895Z,19.50
2018-09-22T08:51:34.546Z,19.50
2018-09-22T08:52:38.773Z,19.50
2018-09-22T08:53:42.877Z,19.60
2018-09-22T08:54:47.088Z,19.60
2018-09-22T08:55:51.368Z,19.60
2018-09-22T08:56:55.715Z,19.70
2018-09-22T08:57:59.932Z,19.70
2018-09-22T08:59:04.056Z,19.70
2018-09-22T09:00:08.383Z,19.70
2018-09-22T09:01:12.599Z,19.80
2018-09-22T09:02:16.757Z,19.80
2018-09-22T09:03:20.807Z,19.90
2018-09-22T09:04:24.976Z,19.90
2018-09-22T09:05:29.640Z,20.00
2018-09-22T09:06:33.697Z,20.00
2018-09-22T09:07:37.944Z,20.10
2018-09-22T09:08:42.338Z,20.10
2018-09-22T09:09:47.028Z,20.10
2018-09-22T09:10:51.231Z,20.20
2018-09-22T09:11:55.427Z,20.20
2018-09-22T09:12:59.679Z,20.30
2018-09-22T09:14:03.950Z,20.40
2018-09-22T09:15:08.069Z,20.40
2018-09-22T09:16:12.491Z,20.50
2018-09-22T09:17:16.915Z,20.60
2018-09-22T09:18:21.138Z,20.60
2018-09-22T09:19:25.390Z,20.70
2018-09-22T09:20:29.977Z,20.80
2018-09-22T09:21:34.186Z,20.80
2018-09-22T09:22:38.263Z,20.90
2018-09-22T09:23:43.218Z,21.00
2018-09-22T09:24:47.351Z,21.10
2018-09-22T09:25:51.621Z,21.10
2018-09-22T09:26:55.776Z,21.20
2018-09-22T09:28:00.058Z,21.20
2018-09-22T09:29:04.369Z,21.30
2018-09-22T09:30:08.810Z,21.30
2018-09-22T09:31:12.936Z,21.40
2018-09-22T09:32:17.626Z,21.40
2018-09-22T09:33:21.778Z,21.40
2018-09-22T09:34:26.026Z,21.50
2018-09-22T09:35:30.204Z,21.50
2018-09-22T09:36:34.656Z,21.60
2018-09-22T09:37:38.875Z,21.70
2018-09-22T09:38:42.948Z,21.70
2018-09-22T09:39:47.654Z,21.80
2018-09-22T09:40:52.243Z,21.80
2018-09-22T09:41:56.422Z,21.80
2018-09-22T09:43:00.831Z,21.90
2018-09-22T09:44:04.949Z,21.90
2018-09-22T09:45:09.357Z,22.00
2018-09-22T09:46:13.702Z,22.00
2018-09-22T09:47:17.926Z,22.00
2018-09-22T09:48:22.079Z,22.10
2018-09-22T09:49:26.194Z,22.10
2018-09-22T09:50:30.425Z,22.10
2018-09-22T09:51:34.654Z,22.20
2018-09-22T09:52:39.209Z,22.20
2018-09-22T09:53:43.375Z,22.20
2018-09-22T09:54:47.532Z,22.30
2018-09-22T09:55:51.734Z,22.30
2018-09-22T09:56:55.904Z,22.30
2018-09-22T09:58:00.392Z,22.40
2018-09-22T09:59:04.809Z,22.40
2018-09-22T10:00:09.132Z,22.40
2018-09-22T10:01:13.334Z,22.40
2018-09-22T10:02:17.414Z,22.40
2018-09-22T10:03:21.895Z,22.40
2018-09-22T10:04:26.333Z,22.40
2018-09-22T10:05:30.635Z,22.40
2018-09-22T10:06:34.950Z,22.40
2018-09-22T10:07:39.278Z,22.40
2018-09-22T10:08:43.416Z,22.40
2018-09-22T10:09:48.053Z,22.40
2018-09-22T10:10:52.197Z,22.40
2018-09-22T10:11:56.437Z,22.40
2018-09-22T10:13:01.070Z,22.40
2018-09-22T10:14:05.483Z,22.30
2018-09-22T10:15:09.572Z,22.30
2018-09-22T10:16:14.163Z,22.30
2018-09-22T10:17:18.257Z,22.20
2018-09-22T10:18:23.558Z,22.20
2018-09-22T10:19:27.583Z,22.10
2018-09-22T10:20:31.986Z,22.00
2018-09-22T10:21:36.154Z,21.90
2018-09-22T10:22:40.305Z,21.90
2018-09-22T10:23:44.478Z,21.80
2018-09-22T10:24:48.723Z,21.80
2018-09-22T10:25:52.943Z,21.70
2018-09-22T10:26:57.054Z,21.70
2018-09-22T10:28:01.425Z,21.70
2018-09-22T10:29:05.562Z,21.70
2018-09-22T10:30:09.981Z,21.70
2018-09-22T10:31:14.146Z,21.80
2018-09-22T10:32:18.335Z,21.80
2018-09-22T10:33:22.605Z,21.90
2018-09-22T10:34:26.798Z,21.90
2018-09-22T10:35:30.982Z,22.00
2018-09-22T10:36:35.051Z,22.10
2018-09-22T10:37:39.119Z,22.20
2018-09-22T10:38:43.300Z,22.30
2018-09-22T10:39:48.233Z,22.40
2018-09-22T10:40:52.680Z,22.50
2018-09-22T10:41:56.797Z,22.60
2018-09-22T10:43:01.064Z,22.70
2018-09-22T10:44:05.252Z,22.70
2018-09-22T10:45:09.530Z,22.80
2018-09-22T10:46:13.924Z,22.80
2018-09-22T10:47:18.088Z,22.80
2018-09-22T10:48:22.224Z,22.90
2018-09-22T10:49:26.337Z,22.90
2018-09-22T10:50:30.682Z,22.90
2018-09-22T10:51:35.123Z,22.80
2018-09-22T10:52:39.540Z,22.90
2018-09-22T10:53:51.666Z,22.90
2018-09-22T10:54:56.313Z,22.90
2018-09-22T10:56:00.477Z,22.90
2018-09-22T10:57:04.539Z,22.90
2018-09-22T10:58:08.684Z,22.90
2018-09-22T10:59:12.871Z,22.90
2018-09-22T11:00:17.250Z,23.00
2018-09-22T11:01:21.717Z,23.00
2018-09-22T11:02:26.491Z,23.00
2018-09-22T11:03:31.045Z,23.00
2018-09-22T11:04:35.113Z,23.00
2018-09-22T11:05:39.720Z,23.10
2018-09-22T11:06:44.037Z,23.20
2018-09-22T11:07:48.235Z,23.20
2018-09-22T11:08:52.533Z,23.20
2018-09-22T11:09:56.874Z,23.30
2018-09-22T11:11:01.038Z,23.30
2018-09-22T11:12:05.306Z,23.30
2018-09-22T11:13:09.683Z,23.30
2018-09-22T11:14:14.190Z,23.30
2018-09-22T11:15:18.494Z,23.40
2018-09-22T11:16:22.759Z,23.40
2018-09-22T11:17:27.009Z,23.40
2018-09-22T11:18:31.312Z,23.50
2018-09-22T11:19:35.489Z,23.50
2018-09-22T11:20:39.696Z,23.50
2018-09-22T11:21:43.958Z,23.50
2018-09-22T11:22:48.058Z,23.50
2018-09-22T11:23:52.569Z,23.50
2018-09-22T11:24:57.244Z,23.60
2018-09-22T11:26:01.287Z,23.70
2018-09-22T11:27:05.492Z,23.70
2018-09-22T11:28:09.660Z,23.80
2018-09-22T11:29:13.745Z,23.90
2018-09-22T11:30:18.679Z,23.90
2018-09-22T11:31:23.222Z,24.00
2018-09-22T11:32:27.420Z,24.00
2018-09-22T11:33:31.697Z,24.10
2018-09-22T11:34:36.024Z,24.10
2018-09-22T11:35:40.348Z,24.20
2018-09-22T11:36:44.640Z,24.30
2018-09-22T11:37:49.226Z,24.30
2018-09-22T11:38:53.395Z,24.40
2018-09-22T11:39:57.500Z,24.50
2018-09-22T11:41:01.664Z,24.60
2018-09-22T11:42:05.806Z,24.70
2018-09-22T11:43:09.995Z,24.90
2018-09-22T11:44:14.121Z,25.00
2018-09-22T11:45:18.224Z,25.10
2018-09-22T11:46:22.554Z,25.30
2018-09-22T11:47:26.755Z,25.40
2018-09-22T11:48:30.930Z,25.60
2018-09-22T11:49:35.503Z,25.80
2018-09-22T11:50:39.640Z,26.00
2018-09-22T11:51:43.804Z,26.20
2018-09-22T11:52:48.408Z,26.40
2018-09-22T11:53:52.537Z,26.60
2018-09-22T11:54:56.726Z,26.80
2018-09-22T11:56:01.081Z,27.00
2018-09-22T11:57:05.749Z,27.20
2018-09-22T11:58:10.021Z,27.40
2018-09-22T11:59:14.172Z,27.60
2018-09-22T12:00:19.027Z,27.70
2018-09-22T12:01:23.193Z,27.90
2018-09-22T12:02:27.271Z,28.00
2018-09-22T12:03:31.446Z,28.10
2018-09-22T12:04:35.638Z,28.20
2018-09-22T12:05:39.690Z,28.40
2018-09-22T12:06:44.048Z,28.50
2018-09-22T12:07:48.160Z,28.60
2018-09-22T12:08:52.401Z,28.70
2018-09-22T12:09:56.584Z,28.70
2018-09-22T12:11:00.868Z,28.80
2018-09-22T12:12:05.036Z,28.80
2018-09-22T12:13:09.351Z,28.90
2018-09-22T12:14:13.737Z,29.00
2018-09-22T12:15:18.280Z,29.00
2018-09-22T12:16:22.511Z,29.00
2018-09-22T12:17:26.545Z,29.00
2018-09-22T12:18:30.667Z,29.00
2018-09-22T12:19:34.907Z,29.00
2018-09-22T12:20:39.116Z,29.10
2018-09-22T12:21:43.430Z,29.10
2018-09-22T12:22:47.583Z,29.20
2018-09-22T12:23:51.695Z,29.30
2018-09-22T12:24:55.948Z,29.30
2018-09-22T12:26:00.070Z,29.40
2018-09-22T12:27:04.172Z,29.40
2018-09-22T12:28:08.344Z,29.50
2018-09-22T12:29:12.524Z,29.60
2018-09-22T12:30:16.796Z,29.60
2018-09-22T12:31:20.943Z,29.70
2018-09-22T12:32:25.706Z,29.70
2018-09-22T12:33:30.497Z,29.80
2018-09-22T12:34:35.659Z,29.90
2018-09-22T12:35:40.004Z,30.00
2018-09-22T12:36:44.163Z,30.10
2018-09-22T12:37:48.331Z,30.10
2018-09-22T12:38:52.624Z,30.20
2018-09-22T12:39:56.924Z,30.30
2018-09-22T12:41:01.035Z,30.40
2018-09-22T12:42:05.451Z,30.50
2018-09-22T12:43:09.486Z,30.60
2018-09-22T12:44:13.671Z,30.70
2018-09-22T12:45:17.974Z,30.90
2018-09-22T12:46:22.131Z,30.90
2018-09-22T12:47:26.152Z,31.00
2018-09-22T12:48:30.693Z,31.20
2018-09-22T12:49:34.826Z,31.30
2018-09-22T12:50:38.922Z,31.30
2018-09-22T12:51:43.028Z,31.50
2018-09-22T12:52:47.161Z,31.60
2018-09-22T12:53:51.297Z,31.70
2018-09-22T12:54:55.577Z,31.80
2018-09-22T12:55:59.705Z,31.90
2018-09-22T12:57:03.905Z,32.00
2018-09-22T12:58:08.372Z,32.10
2018-09-22T12:59:12.436Z,32.20
2018-09-22T13:00:16.574Z,32.30
2018-09-22T13:01:20.759Z,32.30
2018-09-22T13:02:24.873Z,32.40
2018-09-22T13:03:29.071Z,32.50
2018-09-22T13:04:33.358Z,32.50
2018-09-22T13:05:37.781Z,32.50
2018-09-22T13:06:42.078Z,32.50
2018-09-22T13:07:46.349Z,32.60
2018-09-22T13:08:50.863Z,32.60
2018-09-22T13:09:55.035Z,32.60
2018-09-22T13:10:59.342Z,32.60
2018-09-22T13:12:03.504Z,32.60
2018-09-22T13:13:08.011Z,32.60
2018-09-22T13:14:12.213Z,32.60
2018-09-22T13:15:16.248Z,32.60
2018-09-22T13:16:20.355Z,32.50
2018-09-22T13:17:24.654Z,32.50
2018-09-22T13:18:28.854Z,32.50
2018-09-22T13:19:33.137Z,32.40
2018-09-22T13:20:37.201Z,32.30
2018-09-22T13:21:41.349Z,32.30
2018-09-22T13:22:45.948Z,32.30
2018-09-22T13:23:50.089Z,32.30
2018-09-22T13:24:54.174Z,32.30
2018-09-22T13:25:58.503Z,32.30
2018-09-22T13:27:02.918Z,32.30
2018-09-22T13:28:07.476Z,32.30
2018-09-22T13:29:11.800Z,32.30
2018-09-22T13:30:15.915Z,32.30
2018-09-22T13:31:20.481Z,32.30
2018-09-22T13:32:24.542Z,32.30
2018-09-22T13:33:29.409Z,32.20
2018-09-22T13:34:33.554Z,32.20
2018-09-22T13:35:38.082Z,32.20
2018-09-22T13:36:42.292Z,32.30
2018-09-22T13:37:46.736Z,32.30
2018-09-22T13:38:51.207Z,32.40
2018-09-22T13:39:55.324Z,32.50
2018-09-22T13:40:59.411Z,32.50
2018-09-22T13:42:03.894Z,32.60
2018-09-22T13:43:08.044Z,32.70
2018-09-22T13:44:12.140Z,32.70
2018-09-22T13:45:16.173Z,32.70
2018-09-22T13:46:20.687Z,32.70
2018-09-22T13:47:25.078Z,32.60
2018-09-22T13:48:29.204Z,32.50